Time;durP1;ratioP1;P1;durP2;ratioP2;P2;SDS_P1;SDS_P2;PMS_P1;PMS_P2;Temp;Humidity;BMP_temperature;BMP_pressure;BME280_temperature;BME280_humidity;BME280_pressure;Samples;Min_cycle;Max_cycle;Signal;HPM_P1;HPM_P2
2022/04/21 00:02:41;;;;;;;0.47;0.47;;;8.90;99.90;;;;;;5016503;28;20942;-70
2022/04/21 00:05:31;;;;;;;0.40;0.40;;;8.90;99.90;;;;;;5015793;28;21051;-70
2022/04/21 00:08:20;;;;;;;0.50;0.50;;;8.90;99.90;;;;;;5017134;28;20452;-69
2022/04/21 00:11:08;;;;;;;0.60;0.60;;;8.90;99.90;;;;;;5016517;28;20514;-69
2022/04/21 00:13:56;;;;;;;0.43;0.43;;;8.90;99.90;;;;;;5016767;28;20501;-69
2022/04/21 00:16:45;;;;;;;0.40;0.40;;;8.80;99.90;;;;;;5016049;28;20926;-70
2022/04/21 00:19:33;;;;;;;0.50;0.50;;;8.90;99.90;;;;;;5016091;28;20880;-70
2022/04/21 00:25:29;;;;;;;0.50;0.50;;;8.90;99.90;;;;;;5015850;28;20436;-69
2022/04/21 00:28:18;;;;;;;0.50;0.50;;;8.90;99.90;;;;;;5015810;28;20477;-69
2022/04/21 00:31:06;;;;;;;0.50;0.50;;;8.90;99.90;;;;;;5015195;28;20832;-70
2022/04/21 00:33:54;;;;;;;0.80;0.80;;;8.90;99.90;;;;;;5016568;28;20475;-69
2022/04/21 00:36:42;;;;;;;0.40;0.40;;;8.90;99.90;;;;;;5015480;28;20925;-69
2022/04/21 00:39:32;;;;;;;0.40;0.40;;;8.80;99.90;;;;;;5016214;28;20466;-69
2022/04/21 00:42:20;;;;;;;0.40;0.40;;;8.80;99.90;;;;;;5016011;28;20592;-69
2022/04/21 00:45:10;;;;;;;0.40;0.40;;;8.80;99.90;;;;;;5016506;28;20465;-69
2022/04/21 00:47:59;;;;;;;0.50;0.50;;;8.80;99.90;;;;;;5016867;28;20496;-70
2022/04/21 00:50:47;;;;;;;0.50;0.50;;;8.70;99.90;;;;;;5015514;28;20497;-68
2022/04/21 00:53:37;;;;;;;0.40;0.40;;;8.60;99.90;;;;;;5014642;28;20445;-69
2022/04/21 00:56:27;;;;;;;0.50;0.50;;;8.60;99.90;;;;;;5015059;28;20550;-70
2022/04/21 00:59:15;;;;;;;0.50;0.50;;;8.60;99.90;;;;;;5014421;28;20437;-69
2022/04/21 01:05:11;;;;;;;0.40;0.40;;;8.50;99.90;;;;;;5015223;28;20838;-69
2022/04/21 01:08:01;;;;;;;0.50;0.50;;;8.50;99.90;;;;;;5015628;28;20426;-68
2022/04/21 01:10:50;;;;;;;0.40;0.40;;;8.40;99.90;;;;;;5016347;28;20414;-68
2022/04/21 01:13:40;;;;;;;0.40;0.40;;;8.50;99.90;;;;;;5014457;28;20847;-68
2022/04/21 01:16:28;;;;;;;0.80;0.80;;;8.40;99.90;;;;;;5014819;28;20477;-69
2022/04/21 01:19:16;;;;;;;0.50;0.50;;;8.40;99.90;;;;;;5015384;28;20964;-69
2022/04/21 01:22:06;;;;;;;0.40;0.40;;;8.40;99.90;;;;;;5014646;28;20418;-69
2022/04/21 01:24:54;;;;;;;1.50;1.40;;;8.30;99.90;;;;;;5015350;28;20433;-68
2022/04/21 01:27:43;;;;;;;0.40;0.40;;;8.40;99.90;;;;;;5015331;28;20989;-69
2022/04/21 01:30:31;;;;;;;0.60;0.60;;;8.30;99.90;;;;;;5010511;28;20434;-69
2022/04/21 01:33:19;;;;;;;0.40;0.40;;;8.20;99.90;;;;;;5011682;28;20463;-70
2022/04/21 01:36:07;;;;;;;0.40;0.40;;;8.20;99.90;;;;;;5015416;28;20532;-69
2022/04/21 01:42:02;;;;;;;0.50;0.50;;;8.00;99.90;;;;;;5014532;28;20464;-69
2022/04/21 01:44:50;;;;;;;0.50;0.50;;;7.80;99.90;;;;;;5015692;28;20522;-70
2022/04/21 01:47:38;;;;;;;0.40;0.40;;;7.80;99.90;;;;;;5014375;28;20426;-69
2022/04/21 01:50:27;;;;;;;0.40;0.40;;;7.80;99.90;;;;;;5014695;28;20997;-71
2022/04/21 01:53:15;;;;;;;0.53;0.53;;;7.80;99.90;;;;;;5014978;28;20509;-69
2022/04/21 01:56:06;;;;;;;0.40;0.40;;;7.80;99.90;;;;;;5014307;28;20453;-69
2022/04/21 01:58:54;;;;;;;0.40;0.40;;;7.90;99.90;;;;;;5015772;28;20430;-69
2022/04/21 02:01:42;;;;;;;0.50;0.50;;;7.90;99.90;;;;;;5014156;28;20564;-69
2022/04/21 02:04:30;;;;;;;0.80;0.60;;;8.00;99.90;;;;;;5014973;28;20461;-70
2022/04/21 02:07:18;;;;;;;0.40;0.40;;;8.00;99.90;;;;;;5014656;28;20485;-69
2022/04/21 02:10:07;;;;;;;0.40;0.40;;;8.00;99.90;;;;;;5014653;28;20426;-68
2022/04/21 02:12:56;;;;;;;0.43;0.43;;;7.90;99.90;;;;;;5014817;28;20453;-69
2022/04/21 02:15:44;;;;;;;0.40;0.40;;;7.90;99.90;;;;;;5014392;28;20450;-68
2022/04/21 02:18:33;;;;;;;0.70;0.70;;;7.90;99.90;;;;;;5014597;28;20572;-68
2022/04/21 02:21:21;;;;;;;0.50;0.50;;;7.80;99.90;;;;;;5014361;28;20564;-70
2022/04/21 02:24:09;;;;;;;0.47;0.47;;;7.90;99.90;;;;;;5013721;28;21040;-69
2022/04/21 02:26:57;;;;;;;1.23;1.23;;;7.90;99.90;;;;;;5014368;28;21024;-69
2022/04/21 02:29:46;;;;;;;0.40;0.40;;;7.90;99.90;;;;;;5014822;28;20467;-69
2022/04/21 02:32:34;;;;;;;0.50;0.50;;;7.90;99.90;;;;;;5014040;28;20465;-69
2022/04/21 02:35:22;;;;;;;0.40;0.40;;;7.90;99.90;;;;;;5013784;28;20537;-70
2022/04/21 02:38:10;;;;;;;0.40;0.40;;;8.00;99.90;;;;;;5014367;28;20430;-69
2022/04/21 02:40:58;;;;;;;3.70;2.00;;;8.00;99.90;;;;;;5015006;28;20520;-69
2022/04/21 02:43:47;;;;;;;0.40;0.40;;;8.00;99.90;;;;;;5014546;28;20547;-69
2022/04/21 02:46:36;;;;;;;0.50;0.50;;;7.90;99.90;;;;;;5015709;28;20426;-69
2022/04/21 02:49:25;;;;;;;0.40;0.40;;;7.80;99.90;;;;;;5013891;28;20429;-70
2022/04/21 02:52:14;;;;;;;0.73;0.73;;;7.80;99.90;;;;;;5014401;28;20434;-71
2022/04/21 02:58:08;;;;;;;0.57;0.57;;;7.80;99.90;;;;;;5014086;28;20433;-68
2022/04/21 03:00:57;;;;;;;0.40;0.40;;;7.80;99.90;;;;;;5013072;28;21009;-68
2022/04/21 03:03:47;;;;;;;0.40;0.40;;;7.90;99.90;;;;;;4994529;28;20464;-69
2022/04/21 03:06:35;;;;;;;0.40;0.40;;;7.80;99.90;;;;;;4994167;28;20780;-70
2022/04/21 03:09:23;;;;;;;0.40;0.40;;;7.90;99.90;;;;;;4993664;28;20481;-69
2022/04/21 03:12:11;;;;;;;0.40;0.40;;;7.90;99.90;;;;;;4994932;28;20434;-69
2022/04/21 03:14:59;;;;;;;0.40;0.40;;;7.80;99.90;;;;;;4994694;28;20426;-69
2022/04/21 03:17:48;;;;;;;1.00;0.80;;;7.80;99.90;;;;;;4993898;28;20431;-69
2022/04/21 03:26:50;;;;;;;0.40;0.40;;;7.80;99.90;;;;;;4994027;28;20422;-69
2022/04/21 03:29:38;;;;;;;0.50;0.50;;;7.80;99.90;;;;;;4996874;28;20430;-69
2022/04/21 03:32:27;;;;;;;0.40;0.40;;;7.80;99.90;;;;;;4997515;28;20509;-69
2022/04/21 03:35:15;;;;;;;0.40;0.40;;;7.80;99.90;;;;;;4996836;28;20509;-70
2022/04/21 03:38:05;;;;;;;0.50;0.50;;;7.80;99.90;;;;;;4999017;28;20430;-69
2022/04/21 03:40:53;;;;;;;0.50;0.50;;;7.80;99.90;;;;;;4996941;28;20818;-69
2022/04/21 03:43:41;;;;;;;0.83;0.83;;;7.70;99.90;;;;;;4997073;28;20470;-69
2022/04/21 03:46:30;;;;;;;0.60;0.60;;;7.70;99.90;;;;;;4998936;28;20427;-69
2022/04/21 03:49:19;;;;;;;0.43;0.43;;;7.60;99.90;;;;;;5001870;28;20462;-70
2022/04/21 03:52:08;;;;;;;0.40;0.40;;;7.60;99.90;;;;;;4997890;28;20434;-70
2022/04/21 03:54:57;;;;;;;0.40;0.40;;;7.60;99.90;;;;;;4998922;28;20466;-68
2022/04/21 03:57:45;;;;;;;0.40;0.40;;;7.70;99.90;;;;;;4997647;28;20430;-68
2022/04/21 04:00:33;;;;;;;0.40;0.40;;;7.70;99.90;;;;;;4997572;28;20427;-68
2022/04/21 04:03:21;;;;;;;2.40;2.30;;;7.60;99.90;;;;;;4998485;28;20446;-69
2022/04/21 04:10:51;;;;;;;0.40;0.40;;;7.70;99.90;;;;;;4998343;28;20423;-70
2022/04/21 04:12:30;;;;;;;0.40;0.40;;;7.70;99.90;;;;;;4997749;28;20434;-70
2022/04/21 04:15:18;;;;;;;0.40;0.40;;;7.70;99.90;;;;;;4997592;28;20966;-68
2022/04/21 04:18:07;;;;;;;0.40;0.40;;;7.60;99.90;;;;;;4996487;28;20434;-69
2022/04/21 04:20:55;;;;;;;0.40;0.40;;;7.70;99.90;;;;;;4996515;28;20436;-69
2022/04/21 04:23:43;;;;;;;2.03;0.70;;;7.60;99.90;;;;;;4997180;28;20446;-68
2022/04/21 04:26:32;;;;;;;0.50;0.50;;;7.60;99.90;;;;;;4995861;28;20430;-68
2022/04/21 04:29:23;;;;;;;0.50;0.50;;;7.60;99.90;;;;;;4996282;28;20511;-69
2022/04/21 04:32:11;;;;;;;1.57;1.47;;;7.60;99.90;;;;;;4996343;28;20427;-68
2022/04/21 04:34:59;;;;;;;0.40;0.40;;;7.60;99.90;;;;;;4996513;28;21163;-68
2022/04/21 04:37:47;;;;;;;0.40;0.40;;;7.60;99.90;;;;;;4996363;28;20431;-68
2022/04/21 04:40:35;;;;;;;0.40;0.40;;;7.60;99.90;;;;;;4996588;28;20459;-68
2022/04/21 04:43:23;;;;;;;0.50;0.50;;;7.60;99.90;;;;;;4995649;28;21014;-68
2022/04/21 04:49:18;;;;;;;0.47;0.47;;;7.70;99.90;;;;;;4997085;28;20429;-69
2022/04/21 04:52:06;;;;;;;0.50;0.50;;;7.70;99.90;;;;;;4995958;28;20419;-69
2022/04/21 04:54:56;;;;;;;0.50;0.50;;;7.70;99.90;;;;;;4996183;28;20453;-70
2022/04/21 04:57:46;;;;;;;0.40;0.40;;;7.70;99.90;;;;;;4996163;28;20422;-69
2022/04/21 05:00:34;;;;;;;0.60;0.60;;;7.70;99.90;;;;;;4996083;28;20431;-68
2022/04/21 05:03:24;;;;;;;0.40;0.40;;;7.70;99.90;;;;;;4995890;28;20470;-68
2022/04/21 05:06:12;;;;;;;0.47;0.47;;;7.70;99.90;;;;;;4995528;28;20435;-68
2022/04/21 05:09:00;;;;;;;0.50;0.50;;;7.80;99.90;;;;;;4995421;28;20431;-70
2022/04/21 05:11:50;;;;;;;0.40;0.40;;;7.80;99.90;;;;;;4996360;28;20426;-68
2022/04/21 05:14:38;;;;;;;0.40;0.40;;;7.80;99.90;;;;;;4996391;28;20459;-69
2022/04/21 05:17:28;;;;;;;0.40;0.40;;;7.90;99.90;;;;;;4994932;28;20426;-69
2022/04/21 05:20:38;;;;;;;0.40;0.40;;;8.10;99.90;;;;;;4995152;28;20439;-68
2022/04/21 05:23:28;;;;;;;0.70;0.70;;;8.10;99.90;;;;;;4994484;28;20525;-70
2022/04/21 05:26:17;;;;;;;0.40;0.40;;;8.10;99.90;;;;;;4994304;28;20423;-70
2022/04/21 05:30:55;;;;;;;0.40;0.40;;;8.00;99.90;;;;;;4995683;28;21126;-70
2022/04/21 05:32:17;;;;;;;1.07;1.07;;;8.10;99.90;;;;;;4994746;28;20485;-68
2022/04/21 05:35:06;;;;;;;0.40;0.40;;;8.10;99.90;;;;;;4995362;28;20442;-68
2022/04/21 05:37:56;;;;;;;0.50;0.50;;;8.00;99.90;;;;;;4995583;28;20802;-70
2022/04/21 05:40:44;;;;;;;0.50;0.50;;;8.10;99.90;;;;;;4994589;28;20493;-70
2022/04/21 05:43:40;;;;;;;0.47;0.47;;;8.20;99.90;;;;;;4994840;28;20478;-69
2022/04/21 05:46:28;;;;;;;0.40;0.40;;;8.20;99.90;;;;;;4994650;28;20431;-70
2022/04/21 05:49:18;;;;;;;0.40;0.40;;;8.30;99.90;;;;;;4994235;28;20454;-70
2022/04/21 05:52:08;;;;;;;1.60;1.23;;;8.50;99.90;;;;;;4994624;28;20430;-69
2022/04/21 05:54:58;;;;;;;0.40;0.40;;;8.50;99.90;;;;;;4994571;28;20482;-70
2022/04/21 05:57:46;;;;;;;0.40;0.40;;;8.50;99.90;;;;;;4993665;28;20438;-71
2022/04/21 06:00:34;;;;;;;0.50;0.50;;;8.70;99.90;;;;;;4993981;28;20940;-71
2022/04/21 06:03:22;;;;;;;0.40;0.40;;;8.80;99.90;;;;;;4994294;28;20898;-68
2022/04/21 06:06:11;;;;;;;0.40;0.40;;;9.00;99.90;;;;;;4994505;28;20474;-70
2022/04/21 06:09:00;;;;;;;0.40;0.40;;;8.90;99.90;;;;;;4994725;28;20970;-69
2022/04/21 06:11:50;;;;;;;0.40;0.40;;;9.10;99.90;;;;;;4992899;28;20944;-70
2022/04/21 06:14:39;;;;;;;0.67;0.60;;;9.20;99.90;;;;;;4994327;28;20451;-69
2022/04/21 06:17:27;;;;;;;0.40;0.40;;;9.20;99.90;;;;;;4994628;28;20513;-69
2022/04/21 06:20:15;;;;;;;0.50;0.50;;;9.20;99.90;;;;;;4993941;28;20434;-70
2022/04/21 06:23:03;;;;;;;0.40;0.40;;;9.30;99.90;;;;;;4994515;28;20530;-70
2022/04/21 06:25:58;;;;;;;0.40;0.40;;;9.30;99.90;;;;;;4994201;28;20974;-72
2022/04/21 06:28:48;;;;;;;0.40;0.40;;;9.30;99.90;;;;;;4994414;28;20432;-69
2022/04/21 06:31:36;;;;;;;0.50;0.50;;;9.50;99.90;;;;;;4994063;28;20423;-69
2022/04/21 06:34:25;;;;;;;0.40;0.40;;;9.70;99.90;;;;;;4993823;28;20529;-69
2022/04/21 06:37:13;;;;;;;0.40;0.40;;;9.70;99.90;;;;;;4994622;28;20861;-69
2022/04/21 06:40:06;;;;;;;0.40;0.40;;;9.70;99.90;;;;;;4993387;28;20427;-71
2022/04/21 06:42:55;;;;;;;0.40;0.40;;;9.60;99.90;;;;;;4993526;28;21047;-69
2022/04/21 06:48:59;;;;;;;0.50;0.50;;;9.50;99.90;;;;;;4982483;28;20447;-69
2022/04/21 06:51:47;;;;;;;0.40;0.40;;;9.50;99.90;;;;;;4993370;28;20521;-70
2022/04/21 06:54:35;;;;;;;0.73;0.73;;;9.50;99.90;;;;;;4993223;28;20452;-68
2022/04/21 06:57:24;;;;;;;0.40;0.40;;;9.50;99.90;;;;;;4994107;28;20513;-68
2022/04/21 07:00:13;;;;;;;0.40;0.40;;;9.60;99.90;;;;;;4993763;28;20434;-70
2022/04/21 07:03:03;;;;;;;0.83;0.83;;;9.70;99.90;;;;;;4994407;28;20475;-68
2022/04/21 07:05:54;;;;;;;0.50;0.50;;;9.80;99.90;;;;;;4994578;28;20426;-69
2022/04/21 07:08:42;;;;;;;0.40;0.40;;;9.80;99.90;;;;;;4993853;28;20838;-69
2022/04/21 07:11:30;;;;;;;2.57;2.47;;;9.90;99.90;;;;;;4998180;28;20434;-69
2022/04/21 07:14:19;;;;;;;0.40;0.40;;;10.00;99.90;;;;;;4998242;28;20539;-70
2022/04/21 07:17:07;;;;;;;1.10;0.93;;;10.00;99.90;;;;;;5008163;28;20441;-70
2022/04/21 07:19:56;;;;;;;0.60;0.60;;;10.10;99.90;;;;;;5033106;28;20510;-68
2022/04/21 07:22:44;;;;;;;0.40;0.40;;;10.20;99.90;;;;;;5024224;28;20507;-69
2022/04/21 07:25:33;;;;;;;0.40;0.40;;;10.20;99.90;;;;;;4998216;28;21119;-67
2022/04/21 07:28:21;;;;;;;0.40;0.40;;;10.30;99.90;;;;;;4997681;28;20443;-69
2022/04/21 07:31:09;;;;;;;0.40;0.40;;;10.40;99.90;;;;;;4999163;28;20419;-69
2022/04/21 07:33:58;;;;;;;0.40;0.40;;;10.70;99.90;;;;;;5009323;28;20452;-68
2022/04/21 07:36:47;;;;;;;0.40;0.40;;;11.00;99.90;;;;;;5016860;28;20513;-67
2022/04/21 07:39:37;;;;;;;0.60;0.60;;;11.20;99.90;;;;;;5017878;28;20850;-68
2022/04/21 07:42:25;;;;;;;0.40;0.40;;;11.30;99.90;;;;;;5018190;28;20426;-67
2022/04/21 07:45:13;;;;;;;0.40;0.40;;;11.20;99.90;;;;;;5017748;28;20425;-68
2022/04/21 07:48:02;;;;;;;0.50;0.50;;;11.40;99.90;;;;;;5015945;28;21189;-69
2022/04/21 07:50:50;;;;;;;0.80;0.80;;;11.30;99.90;;;;;;4999488;28;20613;-67
2022/04/21 07:53:43;;;;;;;0.40;0.40;;;11.20;99.90;;;;;;5009311;28;20473;-69
2022/04/21 07:56:37;;;;;;;0.40;0.40;;;11.20;99.90;;;;;;5016888;28;20430;-70
2022/04/21 07:59:25;;;;;;;0.40;0.40;;;11.30;99.90;;;;;;5017081;28;20453;-69
2022/04/21 08:02:15;;;;;;;0.40;0.40;;;11.30;99.90;;;;;;5016589;28;20994;-70
2022/04/21 08:05:04;;;;;;;0.40;0.40;;;11.30;99.90;;;;;;5017570;28;20516;-70
2022/04/21 08:07:53;;;;;;;0.57;0.57;;;11.40;99.90;;;;;;5016330;28;20512;-69
2022/04/21 08:10:42;;;;;;;0.40;0.40;;;11.30;99.90;;;;;;5016076;28;20999;-70
2022/04/21 08:13:30;;;;;;;0.60;0.60;;;11.20;99.90;;;;;;5017834;28;20469;-70
2022/04/21 08:16:18;;;;;;;0.40;0.40;;;11.20;99.90;;;;;;5017311;28;20430;-68
2022/04/21 08:19:07;;;;;;;0.40;0.40;;;11.20;99.90;;;;;;5029126;28;20433;-69
2022/04/21 08:21:55;;;;;;;0.50;0.50;;;11.10;99.90;;;;;;5035471;28;20429;-69
2022/04/21 08:34:22;;;;;;;0.40;0.40;;;11.20;99.90;;;;;;5036047;28;20527;-69
2022/04/21 08:37:14;;;;;;;0.40;0.40;;;11.10;99.90;;;;;;5036830;28;20429;-69
2022/04/21 08:40:02;;;;;;;0.40;0.40;;;11.00;99.90;;;;;;5036595;28;20824;-69
2022/04/21 08:42:54;;;;;;;0.90;0.80;;;11.00;99.90;;;;;;5020814;28;20496;-67
2022/04/21 08:45:43;;;;;;;0.40;0.40;;;11.10;99.90;;;;;;5017419;28;20480;-68
2022/04/21 08:48:35;;;;;;;0.40;0.40;;;11.30;99.90;;;;;;5015331;28;20442;-69
2022/04/21 08:51:28;;;;;;;0.40;0.40;;;11.50;99.90;;;;;;5015941;28;20438;-68
2022/04/21 08:54:17;;;;;;;0.40;0.40;;;11.80;99.90;;;;;;5015283;28;20446;-70
2022/04/21 08:57:06;;;;;;;0.40;0.40;;;11.80;99.90;;;;;;5008735;28;20473;-68
2022/04/21 08:59:56;;;;;;;0.90;0.90;;;11.90;99.90;;;;;;5002401;28;20482;-69
2022/04/21 09:02:47;;;;;;;0.40;0.40;;;12.10;99.90;;;;;;5006034;28;20453;-69
2022/04/21 09:05:36;;;;;;;0.40;0.40;;;12.20;99.90;;;;;;5035937;28;20940;-69
2022/04/21 09:08:26;;;;;;;0.40;0.40;;;12.40;99.90;;;;;;5016088;28;20970;-71
2022/04/21 09:11:20;;;;;;;0.40;0.40;;;12.60;99.90;;;;;;5015862;28;20457;-71
2022/04/21 09:14:15;;;;;;;0.40;0.40;;;12.90;99.90;;;;;;5015258;28;20843;-69
2022/04/21 09:17:06;;;;;;;0.50;0.50;;;13.00;99.90;;;;;;5014906;28;20430;-69
2022/04/21 09:19:58;;;;;;;0.40;0.40;;;13.10;99.90;;;;;;5022856;28;20426;-68
2022/04/21 09:22:53;;;;;;;0.40;0.40;;;13.40;99.90;;;;;;5016207;28;20453;-69
2022/04/21 09:25:48;;;;;;;0.40;0.40;;;13.50;99.90;;;;;;5015636;28;20956;-70
2022/04/21 09:28:36;;;;;;;0.40;0.40;;;13.70;99.90;;;;;;5016178;28;20440;-68
2022/04/21 09:31:26;;;;;;;0.40;0.40;;;13.80;99.90;;;;;;5036435;28;20208;-68
2022/04/21 09:34:16;;;;;;;0.40;0.40;;;14.00;99.90;;;;;;5034517;28;20229;-68
2022/04/21 09:37:05;;;;;;;0.40;0.40;;;14.00;99.90;;;;;;5036093;28;20210;-68
2022/04/21 09:39:54;;;;;;;0.40;0.40;;;13.80;99.90;;;;;;5035032;28;20221;-68
2022/04/21 09:42:42;;;;;;;0.40;0.40;;;14.10;99.90;;;;;;5031528;28;20496;-68
2022/04/21 09:48:39;;;;;;;0.40;0.40;;;14.60;99.90;;;;;;5015059;28;20207;-68
2022/04/21 09:51:29;;;;;;;0.40;0.40;;;15.10;99.90;;;;;;5014156;28;20693;-70
2022/04/21 09:54:17;;;;;;;0.40;0.40;;;15.40;99.90;;;;;;5034595;28;20218;-72
2022/04/21 09:57:06;;;;;;;0.67;0.67;;;15.40;99.90;;;;;;5033741;28;20257;-70
2022/04/21 09:59:54;;;;;;;0.40;0.40;;;15.30;99.90;;;;;;5024325;28;20237;-70
2022/04/21 10:02:45;;;;;;;0.50;0.50;;;15.50;99.90;;;;;;5020853;28;20202;-72
2022/04/21 10:05:36;;;;;;;0.50;0.50;;;15.50;99.90;;;;;;5020766;28;20226;-72
2022/04/21 10:08:25;;;;;;;0.50;0.50;;;15.70;99.90;;;;;;5018610;28;20198;-71
2022/04/21 10:11:15;;;;;;;2.80;2.60;;;15.80;99.90;;;;;;5017863;28;20206;-73
2022/04/21 10:14:06;;;;;;;17.90;16.95;;;16.10;99.90;;;;;;5016945;28;20217;-74
2022/04/21 10:16:54;;;;;;;0.40;0.40;;;16.10;99.90;;;;;;5019076;28;20687;-71
2022/04/21 10:19:43;;;;;;;4.85;4.65;;;16.10;99.90;;;;;;5017399;28;20238;-71
2022/04/21 10:22:34;;;;;;;0.40;0.40;;;15.80;99.90;;;;;;5018240;28;20203;-72
2022/04/21 10:25:35;;;;;;;0.68;0.65;;;15.70;99.90;;;;;;5020645;28;20223;-72
2022/04/21 10:28:37;;;;;;;0.40;0.40;;;15.60;99.90;;;;;;4999582;28;20203;-71
2022/04/21 10:31:29;;;;;;;0.40;0.40;;;15.30;99.90;;;;;;5001230;28;20203;-72
2022/04/21 10:34:31;;;;;;;0.40;0.40;;;15.10;99.90;;;;;;5002553;28;20223;-75
2022/04/21 10:37:21;;;;;;;0.40;0.40;;;15.00;99.90;;;;;;5002397;28;20202;-72
2022/04/21 10:40:11;;;;;;;0.53;0.53;;;14.80;99.90;;;;;;5020745;28;20201;-71
2022/04/21 10:43:03;;;;;;;0.40;0.40;;;14.40;99.90;;;;;;5025246;28;20238;-72
2022/04/21 10:46:04;;;;;;;0.40;0.40;;;13.90;99.90;;;;;;5019449;28;20230;-71
2022/04/21 10:48:53;;;;;;;0.40;0.40;;;13.50;99.90;;;;;;5027052;28;20201;-69
2022/04/21 10:58:54;;;;;;;0.40;0.40;;;13.20;99.90;;;;;;5001976;28;20206;-71
2022/04/21 11:01:54;;;;;;;0.40;0.40;;;13.20;99.90;;;;;;5003033;28;20463;-72
2022/04/21 11:04:42;;;;;;;0.40;0.40;;;13.20;99.90;;;;;;5000065;28;20553;-70
2022/04/21 11:07:50;;;;;;;0.40;0.40;;;13.10;99.90;;;;;;5002075;28;20777;-70
2022/04/21 11:10:42;;;;;;;0.40;0.40;;;12.90;99.90;;;;;;5000098;28;20265;-73
2022/04/21 11:13:42;;;;;;;0.50;0.50;;;12.90;99.90;;;;;;5016231;28;20981;-71
2022/04/21 11:16:50;;;;;;;0.40;0.40;;;12.80;99.90;;;;;;5017992;28;20907;-70
2022/04/21 11:19:44;;;;;;;0.40;0.40;;;12.80;99.90;;;;;;5013908;28;20472;-73
2022/04/21 11:22:40;;;;;;;0.40;0.40;;;12.80;99.90;;;;;;5027710;28;20213;-72
2022/04/21 11:25:33;;;;;;;0.83;0.83;;;12.80;99.90;;;;;;5031286;28;20476;-70
2022/04/21 11:28:25;;;;;;;0.40;0.40;;;12.70;99.90;;;;;;5021448;28;20801;-72
2022/04/21 11:31:14;;;;;;;0.40;0.40;;;12.80;99.90;;;;;;5018072;28;24127;-73
2022/04/21 11:34:04;;;;;;;0.40;0.40;;;12.80;99.90;;;;;;5014012;28;20438;-70
2022/04/21 11:36:56;;;;;;;0.90;0.90;;;12.80;99.90;;;;;;5017694;28;20433;-71
2022/04/21 11:39:44;;;;;;;0.40;0.40;;;12.90;99.90;;;;;;5018257;28;20434;-72
2022/04/21 11:42:32;;;;;;;0.83;0.83;;;13.00;99.90;;;;;;5018449;28;20441;-71
2022/04/21 11:45:25;;;;;;;0.40;0.40;;;13.00;99.90;;;;;;5017137;28;20484;-70
2022/04/21 11:48:14;;;;;;;0.40;0.40;;;13.10;99.90;;;;;;5018556;28;20462;-70
2022/04/21 11:51:04;;;;;;;1.93;1.77;;;13.30;99.90;;;;;;5011117;28;20426;-70
2022/04/21 11:53:53;;;;;;;0.40;0.40;;;13.50;99.90;;;;;;5035988;28;20456;-72
2022/04/21 11:56:42;;;;;;;0.40;0.40;;;14.00;99.90;;;;;;5040156;28;20202;-70
2022/04/21 11:59:36;;;;;;;0.40;0.40;;;14.80;99.90;;;;;;5040759;28;20679;-72
2022/04/21 12:08:44;;;;;;;0.40;0.40;;;14.90;99.90;;;;;;5042507;28;20671;-70
2022/04/21 12:11:32;;;;;;;0.40;0.40;;;14.60;99.90;;;;;;5041025;28;20206;-68
2022/04/21 12:14:21;;;;;;;0.40;0.40;;;14.30;99.90;;;;;;5041223;28;20276;-72
2022/04/21 12:17:11;;;;;;;0.40;0.40;;;14.20;99.90;;;;;;5042562;28;20214;-72
2022/04/21 12:20:03;;;;;;;0.40;0.40;;;14.20;99.90;;;;;;5041986;28;20202;-73
2022/04/21 12:22:51;;;;;;;0.40;0.40;;;14.40;99.90;;;;;;5041147;28;20956;-69
2022/04/21 12:25:40;;;;;;;0.40;0.40;;;14.50;99.90;;;;;;5040083;28;20240;-71
2022/04/21 12:28:28;;;;;;;1.67;1.67;;;14.60;99.90;;;;;;5041589;28;20206;-69
2022/04/21 12:31:19;;;;;;;0.43;0.43;;;14.70;99.90;;;;;;5040740;28;20205;-70
2022/04/21 12:34:07;;;;;;;0.40;0.40;;;15.00;99.90;;;;;;5040404;28;20348;-70
2022/04/21 12:36:58;;;;;;;1.83;1.43;;;15.00;99.90;;;;;;5039562;28;20202;-70
2022/04/21 12:39:46;;;;;;;0.40;0.40;;;15.10;99.90;;;;;;5040423;28;20202;-72
2022/04/21 12:42:56;;;;;;;0.40;0.40;;;15.00;99.90;;;;;;5040161;28;20222;-72
2022/04/21 12:45:44;;;;;;;0.40;0.40;;;15.00;99.90;;;;;;5042326;28;20222;-70
2022/04/21 12:48:33;;;;;;;0.50;0.50;;;15.00;99.90;;;;;;5041630;28;20210;-72
2022/04/21 12:51:22;;;;;;;0.45;0.45;;;14.80;99.90;;;;;;5041903;28;20244;-68
2022/04/21 12:54:10;;;;;;;0.40;0.40;;;14.80;99.90;;;;;;5039354;28;20276;-69
2022/04/21 12:56:58;;;;;;;0.40;0.40;;;14.70;99.90;;;;;;5039834;28;20198;-72
2022/04/21 12:59:48;;;;;;;0.50;0.50;;;14.80;99.90;;;;;;5039201;28;20198;-69
2022/04/21 13:02:38;;;;;;;0.40;0.40;;;14.80;99.90;;;;;;5040024;28;20229;-70
2022/04/21 13:05:26;;;;;;;1.03;1.03;;;14.80;99.90;;;;;;5040128;28;20252;-70
2022/04/21 13:08:14;;;;;;;0.40;0.40;;;14.90;99.90;;;;;;5038383;28;20256;-72
2022/04/21 13:11:03;;;;;;;0.40;0.40;;;15.00;99.90;;;;;;5039772;28;20202;-71
2022/04/21 13:13:52;;;;;;;0.40;0.40;;;15.10;99.90;;;;;;5040551;28;20694;-72
2022/04/21 13:16:42;;;;;;;0.40;0.40;;;15.10;99.90;;;;;;5041009;28;20600;-71
2022/04/21 13:19:30;;;;;;;0.40;0.40;;;15.30;99.90;;;;;;5039111;28;20194;-70
2022/04/21 13:22:24;;;;;;;0.40;0.40;;;15.30;99.90;;;;;;5039647;28;20205;-72
2022/04/21 13:25:12;;;;;;;0.43;0.43;;;15.20;99.90;;;;;;5040142;28;20206;-70
2022/04/21 13:28:00;;;;;;;0.40;0.40;;;15.00;99.90;;;;;;5040362;28;20237;-70
2022/04/21 13:33:21;;;;;;;0.40;0.40;;;14.90;99.90;;;;;;5023687;28;20319;-71
2022/04/21 13:33:59;;;;;;;0.60;0.60;;;14.70;99.90;;;;;;5040577;28;20356;-72
2022/04/21 13:36:47;;;;;;;0.50;0.50;;;14.50;99.90;;;;;;5036099;28;20207;-70
2022/04/21 13:39:36;;;;;;;0.50;0.50;;;14.30;99.90;;;;;;5020459;28;20230;-71
2022/04/21 13:42:25;;;;;;;0.80;0.80;;;14.20;99.90;;;;;;5019212;28;20206;-70
2022/04/21 13:45:13;;;;;;;0.40;0.40;;;14.20;99.90;;;;;;5021410;28;20206;-71
2022/04/21 13:48:11;;;;;;;0.40;0.40;;;14.20;99.90;;;;;;5019763;28;20221;-68
2022/04/21 13:51:02;;;;;;;0.40;0.40;;;14.50;99.90;;;;;;5020840;28;20214;-69
2022/04/21 13:53:51;;;;;;;0.40;0.40;;;14.80;99.90;;;;;;5019619;28;20227;-71
2022/04/21 13:56:39;;;;;;;0.40;0.40;;;15.00;99.90;;;;;;5020366;28;20225;-70
2022/04/21 13:59:27;;;;;;;0.40;0.40;;;15.10;99.90;;;;;;5020053;28;20207;-68
2022/04/21 14:02:15;;;;;;;0.50;0.50;;;15.10;99.90;;;;;;5018236;28;20210;-69
2022/04/21 14:05:04;;;;;;;0.40;0.40;;;15.00;99.90;;;;;;5019950;28;20221;-70
2022/04/21 14:07:53;;;;;;;0.40;0.40;;;15.00;99.90;;;;;;5020239;28;20238;-72
2022/04/21 14:10:44;;;;;;;0.40;0.40;;;14.70;99.90;;;;;;5017395;28;20269;-69
2022/04/21 14:13:32;;;;;;;0.40;0.40;;;14.60;99.90;;;;;;5016568;28;20219;-72
2022/04/21 14:16:20;;;;;;;0.40;0.40;;;14.50;99.90;;;;;;5017970;28;20242;-72
2022/04/21 14:19:20;;;;;;;0.40;0.40;;;14.30;99.90;;;;;;5018396;28;20199;-69
2022/04/21 14:22:08;;;;;;;0.43;0.43;;;14.10;99.90;;;;;;5017812;28;20209;-70
2022/04/21 14:24:57;;;;;;;0.40;0.40;;;13.90;99.90;;;;;;5017784;28;20203;-70
2022/04/21 14:27:45;;;;;;;0.40;0.40;;;13.90;99.90;;;;;;5018711;28;20297;-73
2022/04/21 14:30:34;;;;;;;1.80;1.70;;;13.80;99.90;;;;;;5018096;28;20214;-73
2022/04/21 14:33:25;;;;;;;0.40;0.40;;;13.70;99.90;;;;;;5017166;28;20230;-73
2022/04/21 14:36:13;;;;;;;0.40;0.40;;;13.70;99.90;;;;;;5017399;28;20198;-72
2022/04/21 14:45:15;;;;;;;0.40;0.40;;;13.60;99.90;;;;;;5017471;28;20194;-70
2022/04/21 14:48:04;;;;;;;2.70;1.37;;;13.60;99.90;;;;;;5018402;28;20689;-71
2022/04/21 14:50:52;;;;;;;0.60;0.60;;;13.60;99.90;;;;;;5017793;28;20203;-73
2022/04/21 14:53:43;;;;;;;0.40;0.40;;;13.70;99.90;;;;;;5017311;28;20509;-73
2022/04/21 14:56:33;;;;;;;0.40;0.40;;;13.70;99.90;;;;;;5018793;28;20277;-71
2022/04/21 14:59:23;;;;;;;0.50;0.50;;;13.70;99.90;;;;;;5018824;28;20206;-71
2022/04/21 15:02:11;;;;;;;0.40;0.40;;;13.70;99.90;;;;;;5017403;28;20540;-69
2022/04/21 15:05:00;;;;;;;0.50;0.50;;;13.70;99.90;;;;;;5018225;28;20202;-72
2022/04/21 15:07:48;;;;;;;0.40;0.40;;;13.80;99.90;;;;;;5020504;28;20301;-70
2022/04/21 15:10:39;;;;;;;0.40;0.40;;;13.90;99.90;;;;;;5019081;28;20199;-71
2022/04/21 15:13:28;;;;;;;0.40;0.40;;;13.90;99.90;;;;;;5019301;28;20630;-70
2022/04/21 15:16:18;;;;;;;1.87;1.03;;;14.00;99.90;;;;;;5018422;28;20230;-71
2022/04/21 15:19:06;;;;;;;0.60;0.60;;;14.10;99.90;;;;;;5018970;28;20285;-72
2022/04/21 15:21:54;;;;;;;0.40;0.40;;;14.00;99.90;;;;;;5027478;28;20213;-71
2022/04/21 15:24:43;;;;;;;0.40;0.40;;;13.80;99.90;;;;;;5037519;28;20235;-71
2022/04/21 15:27:31;;;;;;;0.50;0.50;;;13.70;99.90;;;;;;5023684;28;20226;-71
2022/04/21 15:30:19;;;;;;;0.40;0.40;;;13.70;99.90;;;;;;5016760;28;20430;-71
2022/04/21 15:33:14;;;;;;;0.40;0.40;;;13.70;99.90;;;;;;5020400;28;20725;-69
2022/04/21 15:36:03;;;;;;;0.40;0.40;;;13.60;99.90;;;;;;5021473;28;20202;-70
2022/04/21 15:38:51;;;;;;;0.50;0.50;;;13.70;99.90;;;;;;5021252;28;20195;-70
2022/04/21 15:41:39;;;;;;;0.50;0.50;;;13.80;99.90;;;;;;5022685;28;20226;-73
2022/04/21 15:44:27;;;;;;;0.40;0.40;;;13.90;99.90;;;;;;5021028;28;20234;-71
2022/04/21 15:47:15;;;;;;;0.40;0.40;;;13.90;99.90;;;;;;5021522;28;20226;-73
2022/04/21 15:50:06;;;;;;;0.40;0.40;;;14.00;99.90;;;;;;5021936;28;20433;-74